FNHU/NOV METAR and TAF weather

Enter ICAO airport designator
Station Type Date Time Source
FNHU METAR 2021/05/13 15:00 UTC NOAA

FNHU 131500Z 00000KT 9999 SCT021 23/09 Q1020


Station Type Date Time Source
FNHU Decoded METAR 2021/05/13 15:00 UTC NOAA

Huambo Nova Lisboa , Angola (FNHU) 12-48S 015-45E 1701M
May 13, 2021 - 11:00 AM EDT / 2021.05.13 1500 UTC
Wind: Calm:0
Visibility: greater than 7 mile(s):0
Sky conditions: partly cloudy
Temperature: 73 F (23 C)
Dew Point: 48 F (9 C)
Relative Humidity: 40%
Pressure (altimeter): 30.12 in. Hg (1020 hPa)
ob: FNHU 131500Z 00000KT 9999 SCT021 23/09 Q1020
cycle: 15

Station Type Date Time Source
FNHU TAF 2021/05/13 12:21 UTC NOAA

TAF TAF FNHU 131100Z 1312/1324 VRB03KT 9999 FEW020

Example: see airport list